createdAt,value
2022-09-23T00:00:18.942Z,99960.41
2022-09-23T00:03:21.597Z,99960.94
2022-09-23T00:06:24.210Z,99952.09
2022-09-23T00:09:25.756Z,99954.19
2022-09-23T00:12:27.249Z,99957.03
2022-09-23T00:15:31.023Z,99955.84
2022-09-23T00:18:32.722Z,99958.75
2022-09-23T00:21:34.120Z,99947.75
2022-09-23T00:24:35.666Z,99956.53
2022-09-23T00:27:38.538Z,99951.19
2022-09-23T00:30:41.585Z,99959.44
2022-09-23T00:33:43.485Z,99950.97
2022-09-23T00:36:44.932Z,99960.28
2022-09-23T00:39:47.005Z,99956.28
2022-09-23T00:42:49.820Z,99958.44
2022-09-23T00:45:51.300Z,99955.56
2022-09-23T00:49:00.069Z,99958.19
2022-09-23T00:52:09.851Z,99957.09
2022-09-23T00:55:17.481Z,99949.69
2022-09-23T00:58:26.824Z,99954.50
2022-09-23T01:01:28.285Z,99961.78
2022-09-23T01:04:30.496Z,99959.31
2022-09-23T01:07:31.901Z,99955.09
2022-09-23T01:10:50.873Z,99956.00
2022-09-23T01:14:23.624Z,99953.16
2022-09-23T01:17:40.535Z,99952.59
2022-09-23T01:21:20.960Z,99950.78
2022-09-23T01:24:34.696Z,99956.84
2022-09-23T01:27:49.663Z,99952.34
2022-09-23T01:31:12.350Z,99949.78
2022-09-23T01:34:34.023Z,99952.44
2022-09-23T01:37:47.020Z,99947.59
2022-09-23T01:41:28.104Z,99949.69
2022-09-23T01:44:52.808Z,99943.22
2022-09-23T01:48:01.351Z,99941.78
2022-09-23T01:51:13.981Z,99948.94
2022-09-23T01:54:23.995Z,99948.63
2022-09-23T01:57:40.807Z,99945.97
2022-09-23T02:00:53.125Z,99947.06
2022-09-23T02:04:06.038Z,99946.88
2022-09-23T02:07:20.733Z,99944.75
2022-09-23T02:10:28.179Z,99953.31
2022-09-23T02:13:40.683Z,99945.22
2022-09-23T02:16:49.993Z,99944.25
2022-09-23T02:19:56.392Z,99947.56
2022-09-23T02:23:07.601Z,99941.53
2022-09-23T02:26:27.627Z,99935.16
2022-09-23T02:29:37.366Z,99938.94
2022-09-23T02:33:02.137Z,99941.97
2022-09-23T02:36:14.895Z,99944.31
2022-09-23T02:39:20.637Z,99936.88
2022-09-23T02:42:28.587Z,99935.63
2022-09-23T02:45:30.950Z,99936.63
2022-09-23T02:48:47.848Z,99923.81
2022-09-23T02:51:50.641Z,99923.56
2022-09-23T02:54:52.500Z,99923.41
2022-09-23T02:57:53.995Z,99915.72
2022-09-23T03:01:15.765Z,99911.19
2022-09-23T03:04:40.401Z,99912.25
2022-09-23T03:08:09.252Z,99916.50
2022-09-23T03:11:13.630Z,99917.13
2022-09-23T03:14:26.375Z,99916.28
2022-09-23T03:17:43.970Z,99918.22
2022-09-23T03:20:51.113Z,99918.44
2022-09-23T03:23:54.398Z,99915.69
2022-09-23T03:26:55.957Z,99910.59
2022-09-23T03:29:58.465Z,99921.22
2022-09-23T03:33:00.899Z,99917.09
2022-09-23T03:36:25.506Z,99901.81
2022-09-23T03:39:40.175Z,99905.66
2022-09-23T03:42:42.361Z,99911.88
2022-09-23T03:45:46.440Z,99905.84
2022-09-23T03:48:49.293Z,99907.75
2022-09-23T03:51:50.834Z,99899.75
2022-09-23T03:54:53.052Z,99905.16
2022-09-23T03:57:55.534Z,99898.94
2022-09-23T04:00:58.706Z,99902.38
2022-09-23T04:04:00.434Z,99902.25
2022-09-23T04:07:02.465Z,99897.31
2022-09-23T04:10:07.184Z,99896.47
2022-09-23T04:13:08.646Z,99897.84
2022-09-23T04:16:10.174Z,99897.31
2022-09-23T04:19:13.054Z,99899.91
2022-09-23T04:22:14.678Z,99907.34
2022-09-23T04:25:16.133Z,99902.78
2022-09-23T04:28:17.550Z,99908.03
2022-09-23T04:31:18.959Z,99901.28
2022-09-23T04:34:20.653Z,99902.09
2022-09-23T04:37:22.065Z,99909.56
2022-09-23T04:40:23.532Z,99907.06
2022-09-23T04:43:25.109Z,99906.38
2022-09-23T04:46:26.665Z,99905.97
2022-09-23T04:49:33.676Z,99914.06
2022-09-23T04:52:35.097Z,99921.78
2022-09-23T04:55:36.488Z,99916.00
2022-09-23T04:58:39.807Z,99914.34
2022-09-23T05:01:41.708Z,99914.63
2022-09-23T05:04:43.273Z,99908.56
2022-09-23T05:07:44.766Z,99916.16
2022-09-23T05:10:46.437Z,99914.50
2022-09-23T05:13:49.183Z,99911.88
2022-09-23T05:16:50.708Z,99912.66
2022-09-23T05:19:52.093Z,99917.63
2022-09-23T05:22:56.122Z,99917.53
2022-09-23T05:26:02.616Z,99919.16
2022-09-23T05:29:04.362Z,99917.09
2022-09-23T05:32:05.907Z,99916.50
2022-09-23T05:35:07.932Z,99911.41
2022-09-23T05:38:09.593Z,99920.63
2022-09-23T05:41:13.913Z,99914.81
2022-09-23T05:44:15.363Z,99912.31
2022-09-23T05:47:16.785Z,99922.53
2022-09-23T05:50:18.185Z,99922.34
2022-09-23T05:53:19.728Z,99924.28
2022-09-23T05:56:24.113Z,99923.31
2022-09-23T05:59:25.916Z,99930.50
2022-09-23T06:02:27.483Z,99923.03
2022-09-23T06:05:30.957Z,99916.72
2022-09-23T06:08:34.508Z,99919.34
2022-09-23T06:11:36.969Z,99921.97
2022-09-23T06:14:38.431Z,99924.72
2022-09-23T06:17:39.961Z,99915.06
2022-09-23T06:20:41.461Z,99917.66
2022-09-23T06:23:44.171Z,99909.16
2022-09-23T06:26:45.560Z,99902.81
2022-09-23T06:29:47.006Z,99900.44
2022-09-23T06:32:52.569Z,99900.44
2022-09-23T06:35:59.852Z,99895.69
2022-09-23T06:39:02.298Z,99896.09
2022-09-23T06:42:06.670Z,99905.38
2022-09-23T06:45:12.995Z,99901.56
2022-09-23T06:48:14.438Z,99902.94
2022-09-23T06:51:19.268Z,99903.75
2022-09-23T06:54:20.680Z,99908.28
2022-09-23T06:57:22.229Z,99907.47
2022-09-23T07:00:24.396Z,99907.53
2022-09-23T07:03:25.835Z,99909.09
2022-09-23T07:06:27.281Z,99907.53
2022-09-23T07:09:28.989Z,99910.81
2022-09-23T07:12:30.424Z,99921.91
2022-09-23T07:15:33.854Z,99922.78
2022-09-23T07:18:37.536Z,99921.41
2022-09-23T07:21:39.224Z,99921.44
2022-09-23T07:24:40.620Z,99925.94
2022-09-23T07:27:42.017Z,99927.09
2022-09-23T07:30:56.036Z,99933.47
2022-09-23T07:34:02.085Z,99936.44
2022-09-23T07:37:04.129Z,99937.47
2022-09-23T07:40:06.020Z,99938.81
2022-09-23T07:43:09.584Z,99943.13
2022-09-23T07:46:16.494Z,99953.00
2022-09-23T07:49:18.016Z,99957.50
2022-09-23T07:52:20.207Z,99961.97
2022-09-23T07:55:21.610Z,99960.47
2022-09-23T07:58:23.377Z,99956.88
2022-09-23T08:01:24.813Z,99960.91
2022-09-23T08:04:29.618Z,99957.19
2022-09-23T08:07:34.310Z,99962.28
2022-09-23T08:10:35.865Z,99956.09
2022-09-23T08:13:37.496Z,99946.38
2022-09-23T08:16:44.767Z,99935.19
2022-09-23T08:19:46.191Z,99940.78
2022-09-23T08:22:50.662Z,99942.38
2022-09-23T08:26:03.970Z,99944.78
2022-09-23T08:29:05.745Z,99940.25
2022-09-23T08:32:07.123Z,99940.78
2022-09-23T08:35:08.794Z,99943.72
2022-09-23T08:38:10.342Z,99950.47
2022-09-23T08:41:31.072Z,99944.59
2022-09-23T08:44:45.798Z,99938.34
2022-09-23T08:47:56.124Z,99938.00
2022-09-23T08:51:12.602Z,99927.91
2022-09-23T08:54:17.697Z,99925.16
2022-09-23T08:57:37.546Z,99930.28
2022-09-23T09:00:46.128Z,99923.00
2022-09-23T09:03:56.335Z,99921.47
2022-09-23T09:07:31.853Z,99917.94
2022-09-23T09:10:39.159Z,99923.91
2022-09-23T09:14:04.799Z,99926.31
2022-09-23T09:17:10.180Z,99924.06
2022-09-23T09:20:29.710Z,99921.25
2022-09-23T09:23:55.453Z,99919.81
2022-09-23T09:26:56.980Z,99907.03
2022-09-23T09:30:01.280Z,99908.66
2022-09-23T09:33:14.311Z,99910.31
2022-09-23T09:36:30.842Z,99900.72
2022-09-23T09:39:36.763Z,99903.84
2022-09-23T09:42:42.634Z,99888.53
2022-09-23T09:45:57.685Z,99889.69
2022-09-23T09:49:07.561Z,99884.97
2022-09-23T09:52:25.904Z,99883.50
2022-09-23T09:55:28.498Z,99872.81
2022-09-23T09:58:43.770Z,99886.16
2022-09-23T10:01:46.172Z,99873.53
2022-09-23T10:04:56.378Z,99867.50
2022-09-23T10:08:32.095Z,99867.06
2022-09-23T10:11:33.642Z,99849.97
2022-09-23T10:14:36.265Z,99855.13
2022-09-23T10:17:39.042Z,99844.16
2022-09-23T10:20:40.525Z,99846.28
2022-09-23T10:23:44.941Z,99841.38
2022-09-23T10:26:55.761Z,99841.66
2022-09-23T10:30:00.209Z,99840.41
2022-09-23T10:33:02.042Z,99839.84
2022-09-23T10:36:03.546Z,99838.28
2022-09-23T10:39:44.531Z,99832.97
2022-09-23T10:43:21.623Z,99844.84
2022-09-23T10:46:38.385Z,99840.63
2022-09-23T10:49:52.592Z,99835.34
2022-09-23T10:53:03.415Z,99840.69
2022-09-23T10:56:19.593Z,99828.88
2022-09-23T10:59:41.102Z,99837.41
2022-09-23T11:03:09.405Z,99820.19
2022-09-23T11:06:37.203Z,99821.53
2022-09-23T11:10:23.362Z,99819.72
2022-09-23T11:13:42.598Z,99811.88
2022-09-23T11:17:15.071Z,99824.19
2022-09-23T11:20:38.686Z,99809.25
2022-09-23T11:23:55.396Z,99804.16
2022-09-23T11:27:32.000Z,99801.31
2022-09-23T11:31:10.055Z,99796.28
2022-09-23T11:34:17.549Z,99794.06
2022-09-23T11:37:24.227Z,99793.91
2022-09-23T11:40:38.822Z,99794.19
2022-09-23T11:43:47.317Z,99789.97
2022-09-23T11:46:55.632Z,99790.84
2022-09-23T11:50:05.008Z,99778.41
2022-09-23T11:53:23.674Z,99779.44
2022-09-23T11:56:36.353Z,99779.00
2022-09-23T12:03:29.686Z,99766.69
2022-09-23T12:06:43.432Z,99774.25
2022-09-23T12:10:06.784Z,99764.03
2022-09-23T12:13:19.284Z,99764.06
2022-09-23T12:16:33.777Z,99765.69
2022-09-23T12:19:56.789Z,99764.03
2022-09-23T12:23:14.698Z,99766.88
2022-09-23T12:26:20.842Z,99757.69
2022-09-23T12:29:25.475Z,99759.94
2022-09-23T12:32:27.817Z,99764.63
2022-09-23T12:35:39.982Z,99757.72
2022-09-23T12:38:49.924Z,99755.66
2022-09-23T12:42:00.405Z,99747.25
2022-09-23T12:45:32.380Z,99745.84
2022-09-23T12:48:46.257Z,99752.78
2022-09-23T12:52:12.359Z,99748.25
2022-09-23T12:55:23.275Z,99748.84
2022-09-23T12:58:43.045Z,99747.41
2022-09-23T13:01:44.859Z,99736.94
2022-09-23T13:05:13.333Z,99737.78
2022-09-23T13:08:18.709Z,99730.09
2022-09-23T13:11:27.306Z,99723.13
2022-09-23T13:14:32.684Z,99720.69
2022-09-23T13:17:38.079Z,99719.84
2022-09-23T13:20:40.722Z,99722.44
2022-09-23T13:24:16.183Z,99714.97
2022-09-23T13:27:21.934Z,99717.97
2022-09-23T13:30:27.015Z,99717.75
2022-09-23T13:33:31.105Z,99714.72
2022-09-23T13:36:43.661Z,99699.38
2022-09-23T13:39:45.108Z,99707.97
2022-09-23T13:42:50.813Z,99705.66
2022-09-23T13:45:52.350Z,99706.88
2022-09-23T13:48:55.395Z,99703.00
2022-09-23T13:51:57.412Z,99695.75
2022-09-23T13:54:58.924Z,99693.47
2022-09-23T13:58:03.223Z,99693.09
2022-09-23T14:01:08.763Z,99692.34
2022-09-23T14:04:24.287Z,99677.75
2022-09-23T14:07:26.596Z,99687.13
2022-09-23T14:10:28.264Z,99680.56
2022-09-23T14:13:32.230Z,99675.75
2022-09-23T14:16:38.175Z,99674.56
2022-09-23T14:19:42.407Z,99678.22
2022-09-23T14:22:44.342Z,99679.84
2022-09-23T14:25:46.420Z,99673.75
2022-09-23T14:28:48.389Z,99672.13
2022-09-23T14:31:57.299Z,99665.59
2022-09-23T14:35:05.348Z,99656.56
2022-09-23T14:38:25.554Z,99659.38
2022-09-23T14:41:27.019Z,99651.81
2022-09-23T14:44:29.497Z,99655.16
2022-09-23T14:47:33.416Z,99649.25
2022-09-23T14:50:46.954Z,99662.38
2022-09-23T14:53:48.962Z,99658.06
2022-09-23T14:56:50.372Z,99665.38
2022-09-23T14:59:59.870Z,99659.88
2022-09-23T15:03:03.489Z,99650.44
2022-09-23T15:06:09.259Z,99642.53
2022-09-23T15:09:20.017Z,99643.56
2022-09-23T15:12:22.145Z,99646.66
2022-09-23T15:15:27.978Z,99640.31
2022-09-23T15:18:33.919Z,99638.25
2022-09-23T15:21:42.277Z,99621.94
2022-09-23T15:24:45.575Z,99629.28
2022-09-23T15:28:05.718Z,99615.22
2022-09-23T15:31:09.119Z,99617.22
2022-09-23T15:34:11.014Z,99619.91
2022-09-23T15:37:12.645Z,99623.97
2022-09-23T15:40:31.287Z,99621.94
2022-09-23T15:43:32.705Z,99616.63
2022-09-23T15:46:34.153Z,99620.72
2022-09-23T15:49:38.932Z,99619.34
2022-09-23T15:52:41.431Z,99614.19
2022-09-23T15:55:42.955Z,99613.78
2022-09-23T15:58:44.392Z,99617.47
2022-09-23T16:01:46.019Z,99609.56
2022-09-23T16:04:50.230Z,99603.88
2022-09-23T16:07:52.470Z,99602.69
2022-09-23T16:10:55.006Z,99602.50
2022-09-23T16:13:56.618Z,99609.84
2022-09-23T16:16:58.232Z,99605.78
2022-09-23T16:19:59.737Z,99606.78
2022-09-23T16:23:04.497Z,99603.75
2022-09-23T16:26:11.139Z,99605.81
2022-09-23T16:29:12.614Z,99599.06
2022-09-23T16:32:15.334Z,99600.28
2022-09-23T16:35:20.737Z,99604.78
2022-09-23T16:38:22.171Z,99599.66
2022-09-23T16:41:25.276Z,99606.19
2022-09-23T16:44:26.697Z,99605.38
2022-09-23T16:47:28.790Z,99594.56
2022-09-23T16:50:32.003Z,99591.69
2022-09-23T16:53:34.734Z,99599.25
2022-09-23T16:56:44.894Z,99597.63
2022-09-23T17:00:05.060Z,99598.03
2022-09-23T17:03:24.805Z,99604.34
2022-09-23T17:06:27.845Z,99607.78
2022-09-23T17:09:30.132Z,99607.78
2022-09-23T17:12:33.521Z,99604.09
2022-09-23T17:15:39.512Z,99597.19
2022-09-23T17:18:40.963Z,99594.53
2022-09-23T17:21:42.635Z,99592.28
2022-09-23T17:24:44.055Z,99602.44
2022-09-23T17:27:47.845Z,99602.19
2022-09-23T17:30:59.527Z,99586.44
2022-09-23T17:34:01.053Z,99599.84
2022-09-23T17:37:02.572Z,99587.59
2022-09-23T17:40:05.035Z,99584.69
2022-09-23T17:43:07.672Z,99596.88
2022-09-23T17:46:12.788Z,99587.28
2022-09-23T17:49:14.984Z,99588.38
2022-09-23T17:52:19.661Z,99583.09
2022-09-23T17:55:21.064Z,99585.88
2022-09-23T17:58:31.423Z,99587.75
2022-09-23T18:01:32.871Z,99589.69
2022-09-23T18:04:34.333Z,99585.94
2022-09-23T18:07:35.726Z,99588.25
2022-09-23T18:10:37.128Z,99594.50
2022-09-23T18:13:38.574Z,99587.53
2022-09-23T18:16:42.172Z,99596.34
2022-09-23T18:19:46.369Z,99591.56
2022-09-23T18:22:47.779Z,99585.53
2022-09-23T18:25:49.180Z,99594.63
2022-09-23T18:29:01.560Z,99592.31
2022-09-23T18:32:03.720Z,99594.94
2022-09-23T18:35:05.849Z,99581.84
2022-09-23T18:38:07.179Z,99575.84
2022-09-23T18:41:09.237Z,99571.06
2022-09-23T18:44:10.715Z,99581.47
2022-09-23T18:47:32.148Z,99578.19
2022-09-23T18:50:39.393Z,99579.56
2022-09-23T18:53:43.766Z,99589.88
2022-09-23T18:56:46.371Z,99583.97
2022-09-23T18:59:47.813Z,99578.78
2022-09-23T19:02:49.204Z,99577.44
2022-09-23T19:05:51.298Z,99566.63
2022-09-23T19:08:54.195Z,99567.06
2022-09-23T19:11:55.808Z,99571.41
2022-09-23T19:14:57.253Z,99569.00
2022-09-23T19:17:58.667Z,99564.25
2022-09-23T19:21:03.595Z,99582.00
2022-09-23T19:24:08.147Z,99577.16
2022-09-23T19:27:09.668Z,99570.38
2022-09-23T19:30:12.020Z,99569.97
2022-09-23T19:33:13.423Z,99576.03
2022-09-23T19:36:15.110Z,99572.28
2022-09-23T19:39:22.202Z,99585.69
2022-09-23T19:42:27.046Z,99589.69
2022-09-23T19:45:30.198Z,99579.16
2022-09-23T19:48:31.622Z,99572.63
2022-09-23T19:51:34.217Z,99565.34
2022-09-23T19:54:35.765Z,99566.34
2022-09-23T19:57:37.162Z,99562.47
2022-09-23T20:00:38.647Z,99565.66
2022-09-23T20:03:40.173Z,99565.84
2022-09-23T20:06:41.736Z,99567.28
2022-09-23T20:09:43.136Z,99564.41
2022-09-23T20:12:44.524Z,99562.56
2022-09-23T20:15:48.150Z,99558.63
2022-09-23T20:18:52.143Z,99551.69
2022-09-23T20:22:13.626Z,99554.34
2022-09-23T20:25:15.214Z,99554.91
2022-09-23T20:28:16.629Z,99552.16
2022-09-23T20:31:20.834Z,99547.63
2022-09-23T20:34:22.480Z,99547.44
2022-09-23T20:37:24.715Z,99548.16
2022-09-23T20:40:26.192Z,99545.25
2022-09-23T20:43:28.122Z,99542.91
2022-09-23T20:46:30.151Z,99541.00
2022-09-23T20:49:34.027Z,99556.25
2022-09-23T20:52:36.152Z,99553.34
2022-09-23T20:55:37.467Z,99558.59
2022-09-23T20:58:39.054Z,99558.00
2022-09-23T21:01:41.263Z,99556.44
2022-09-23T21:04:42.754Z,99556.09
2022-09-23T21:07:46.953Z,99558.97
2022-09-23T21:10:55.925Z,99556.72
2022-09-23T21:14:02.465Z,99563.91
2022-09-23T21:17:03.869Z,99555.34
2022-09-23T21:20:05.887Z,99546.91
2022-09-23T21:23:07.944Z,99552.75
2022-09-23T21:26:12.078Z,99548.06
2022-09-23T21:29:13.833Z,99550.13
2022-09-23T21:32:15.228Z,99543.28
2022-09-23T21:35:18.711Z,99549.31
2022-09-23T21:38:20.139Z,99547.00
2022-09-23T21:41:22.330Z,99550.50
2022-09-23T21:44:23.741Z,99549.88
2022-09-23T21:47:25.998Z,99545.50
2022-09-23T21:50:29.970Z,99553.06
2022-09-23T21:53:32.037Z,99545.16
2022-09-23T21:56:35.286Z,99546.63
2022-09-23T21:59:36.686Z,99549.25
2022-09-23T22:02:40.035Z,99557.53
2022-09-23T22:05:44.023Z,99557.63
2022-09-23T22:08:45.867Z,99557.88
2022-09-23T22:12:05.511Z,99555.03
2022-09-23T22:15:07.130Z,99550.38
2022-09-23T22:18:08.556Z,99552.63
2022-09-23T22:21:09.935Z,99552.38
2022-09-23T22:24:12.525Z,99553.78
2022-09-23T22:27:16.436Z,99550.59
2022-09-23T22:30:36.515Z,99556.69
2022-09-23T22:33:37.845Z,99550.13
2022-09-23T22:36:39.161Z,99539.34
2022-09-23T22:39:40.560Z,99546.66
2022-09-23T22:42:43.144Z,99545.88
2022-09-23T22:45:51.526Z,99538.53
2022-09-23T22:48:53.358Z,99530.34
2022-09-23T22:51:54.667Z,99524.72
2022-09-23T22:54:56.007Z,99527.69
2022-09-23T22:57:57.391Z,99526.44
2022-09-23T23:00:58.718Z,99528.03
2022-09-23T23:04:03.148Z,99530.13
2022-09-23T23:07:05.989Z,99522.13
2022-09-23T23:10:10.363Z,99532.59
2022-09-23T23:13:11.923Z,99527.34
2022-09-23T23:16:13.360Z,99511.31
2022-09-23T23:19:16.947Z,99516.94
2022-09-23T23:22:18.558Z,99516.97
2022-09-23T23:25:19.890Z,99503.09
2022-09-23T23:28:21.233Z,99507.25
2022-09-23T23:31:24.137Z,99504.72
2022-09-23T23:34:25.702Z,99503.41
2022-09-23T23:37:28.686Z,99510.22
2022-09-23T23:40:30.032Z,99501.38
2022-09-23T23:43:31.970Z,99498.53
2022-09-23T23:46:33.523Z,99504.66
2022-09-23T23:49:34.889Z,99502.34
2022-09-23T23:52:36.242Z,99501.16
2022-09-23T23:55:38.755Z,99497.91
2022-09-23T23:58:40.177Z,99507.13
